sensor_id;sensor_type;location;lat;lon;timestamp;pressure;altitude;pressure_sealevel;temperature;humidity
5455;BME280;2750;49.050;9.250;2023-04-07T00:01:10;98835.94;;;10.61;88.29
5455;BME280;2750;49.050;9.250;2023-04-07T00:06:13;98833.53;;;10.75;87.66
5455;BME280;2750;49.050;9.250;2023-04-07T00:11:15;98824.06;;;10.55;88.06
5455;BME280;2750;49.050;9.250;2023-04-07T00:16:17;98822.25;;;10.76;87.86
5455;BME280;2750;49.050;9.250;2023-04-07T00:21:20;98822.97;;;10.42;88.34
5455;BME280;2750;49.050;9.250;2023-04-07T00:26:21;98819.50;;;10.02;89.41
5455;BME280;2750;49.050;9.250;2023-04-07T00:31:24;98799.16;;;10.14;89.89
5455;BME280;2750;49.050;9.250;2023-04-07T00:36:27;98790.50;;;10.15;90.19
5455;BME280;2750;49.050;9.250;2023-04-07T00:41:29;98795.00;;;10.30;89.72
5455;BME280;2750;49.050;9.250;2023-04-07T00:46:30;98775.94;;;10.49;88.56
5455;BME280;2750;49.050;9.250;2023-04-07T00:51:34;98766.66;;;10.44;88.68
5455;BME280;2750;49.050;9.250;2023-04-07T00:56:36;98773.09;;;10.17;90.12
5455;BME280;2750;49.050;9.250;2023-04-07T01:01:42;98763.13;;;10.07;90.40
5455;BME280;2750;49.050;9.250;2023-04-07T01:06:49;98760.38;;;9.92;91.03
5455;BME280;2750;49.050;9.250;2023-04-07T01:11:57;98744.63;;;9.96;90.43
5455;BME280;2750;49.050;9.250;2023-04-07T01:17:02;98746.25;;;9.99;90.65
5455;BME280;2750;49.050;9.250;2023-04-07T01:22:11;98739.66;;;10.11;89.72
5455;BME280;2750;49.050;9.250;2023-04-07T01:27:20;98727.25;;;9.98;90.02
5455;BME280;2750;49.050;9.250;2023-04-07T01:32:25;98737.13;;;9.90;90.29
5455;BME280;2750;49.050;9.250;2023-04-07T01:37:28;98725.84;;;9.91;90.14
5455;BME280;2750;49.050;9.250;2023-04-07T01:42:31;98720.97;;;10.04;89.67
5455;BME280;2750;49.050;9.250;2023-04-07T01:47:34;98717.59;;;10.02;90.25
5455;BME280;2750;49.050;9.250;2023-04-07T01:52:37;98710.84;;;9.79;90.66
5455;BME280;2750;49.050;9.250;2023-04-07T01:57:39;98711.69;;;9.98;90.70
5455;BME280;2750;49.050;9.250;2023-04-07T02:02:44;98704.63;;;10.02;90.46
5455;BME280;2750;49.050;9.250;2023-04-07T02:07:51;98696.78;;;10.03;90.34
5455;BME280;2750;49.050;9.250;2023-04-07T02:12:53;98698.53;;;9.84;91.25
5455;BME280;2750;49.050;9.250;2023-04-07T02:17:58;98692.19;;;9.71;91.26
5455;BME280;2750;49.050;9.250;2023-04-07T02:23:01;98691.22;;;9.74;91.86
5455;BME280;2750;49.050;9.250;2023-04-07T02:28:03;98688.44;;;9.97;90.68
5455;BME280;2750;49.050;9.250;2023-04-07T02:33:07;98682.34;;;9.98;90.26
5455;BME280;2750;49.050;9.250;2023-04-07T02:38:08;98681.34;;;10.00;89.91
5455;BME280;2750;49.050;9.250;2023-04-07T02:43:10;98678.66;;;9.85;90.30
5455;BME280;2750;49.050;9.250;2023-04-07T02:48:13;98676.41;;;9.77;91.24
5455;BME280;2750;49.050;9.250;2023-04-07T02:53:14;98667.59;;;9.42;91.41
5455;BME280;2750;49.050;9.250;2023-04-07T02:58:16;98664.09;;;9.62;91.30
5455;BME280;2750;49.050;9.250;2023-04-07T03:03:18;98664.06;;;9.82;90.61
5455;BME280;2750;49.050;9.250;2023-04-07T03:08:20;98651.25;;;9.79;90.88
5455;BME280;2750;49.050;9.250;2023-04-07T03:13:22;98656.50;;;9.78;90.23
5455;BME280;2750;49.050;9.250;2023-04-07T03:18:24;98654.41;;;9.86;90.52
5455;BME280;2750;49.050;9.250;2023-04-07T03:23:26;98655.88;;;9.91;89.02
5455;BME280;2750;49.050;9.250;2023-04-07T03:28:28;98636.34;;;9.84;90.18
5455;BME280;2750;49.050;9.250;2023-04-07T03:33:31;98636.84;;;9.92;90.29
5455;BME280;2750;49.050;9.250;2023-04-07T03:38:33;98638.56;;;10.11;89.12
5455;BME280;2750;49.050;9.250;2023-04-07T03:43:34;98638.88;;;10.23;88.51
5455;BME280;2750;49.050;9.250;2023-04-07T03:48:37;98637.56;;;10.13;88.87
5455;BME280;2750;49.050;9.250;2023-04-07T03:53:39;98644.41;;;10.16;88.41
5455;BME280;2750;49.050;9.250;2023-04-07T03:58:40;98638.88;;;10.40;87.86
5455;BME280;2750;49.050;9.250;2023-04-07T04:03:45;98647.94;;;10.32;88.03
5455;BME280;2750;49.050;9.250;2023-04-07T04:08:47;98644.84;;;10.42;87.65
5455;BME280;2750;49.050;9.250;2023-04-07T04:13:48;98635.69;;;10.17;88.50
5455;BME280;2750;49.050;9.250;2023-04-07T04:18:51;98638.56;;;10.11;87.88
5455;BME280;2750;49.050;9.250;2023-04-07T04:23:53;98631.69;;;10.28;87.39
5455;BME280;2750;49.050;9.250;2023-04-07T04:28:55;98631.47;;;10.14;88.54
5455;BME280;2750;49.050;9.250;2023-04-07T04:33:58;98640.31;;;10.29;87.23
5455;BME280;2750;49.050;9.250;2023-04-07T04:38:59;98630.97;;;10.61;86.58
5455;BME280;2750;49.050;9.250;2023-04-07T04:44:01;98638.50;;;10.48;87.87
5455;BME280;2750;49.050;9.250;2023-04-07T04:49:04;98640.72;;;10.55;87.73
5455;BME280;2750;49.050;9.250;2023-04-07T04:54:06;98639.34;;;10.66;87.30
5455;BME280;2750;49.050;9.250;2023-04-07T04:59:07;98630.56;;;10.51;87.84
5455;BME280;2750;49.050;9.250;2023-04-07T05:04:11;98636.75;;;10.66;87.00
5455;BME280;2750;49.050;9.250;2023-04-07T05:09:12;98631.56;;;10.66;87.41
5455;BME280;2750;49.050;9.250;2023-04-07T05:14:14;98635.00;;;10.66;86.92
5455;BME280;2750;49.050;9.250;2023-04-07T05:19:16;98632.66;;;10.62;87.67
5455;BME280;2750;49.050;9.250;2023-04-07T05:24:18;98625.31;;;10.70;87.21
5455;BME280;2750;49.050;9.250;2023-04-07T05:29:20;98624.53;;;10.85;86.63
5455;BME280;2750;49.050;9.250;2023-04-07T05:34:23;98635.47;;;10.91;85.99
5455;BME280;2750;49.050;9.250;2023-04-07T05:39:25;98627.31;;;10.99;86.20
5455;BME280;2750;49.050;9.250;2023-04-07T05:44:26;98633.19;;;10.85;86.40
5455;BME280;2750;49.050;9.250;2023-04-07T05:49:29;98638.75;;;10.95;85.97
5455;BME280;2750;49.050;9.250;2023-04-07T05:54:31;98628.69;;;11.39;84.86
5455;BME280;2750;49.050;9.250;2023-04-07T05:59:32;98631.13;;;11.58;83.89
5455;BME280;2750;49.050;9.250;2023-04-07T06:04:35;98644.31;;;11.87;83.65
5455;BME280;2750;49.050;9.250;2023-04-07T06:09:38;98638.16;;;11.88;82.83
5455;BME280;2750;49.050;9.250;2023-04-07T06:14:41;98642.38;;;12.22;82.09
5455;BME280;2750;49.050;9.250;2023-04-07T06:19:44;98638.50;;;12.45;81.93
5455;BME280;2750;49.050;9.250;2023-04-07T06:24:46;98645.47;;;12.29;82.01
5455;BME280;2750;49.050;9.250;2023-04-07T06:29:47;98639.00;;;12.05;82.47
5455;BME280;2750;49.050;9.250;2023-04-07T06:34:50;98640.50;;;12.40;81.58
5455;BME280;2750;49.050;9.250;2023-04-07T06:39:52;98637.06;;;12.69;80.02
5455;BME280;2750;49.050;9.250;2023-04-07T06:44:53;98633.78;;;12.81;79.14
5455;BME280;2750;49.050;9.250;2023-04-07T06:49:56;98632.88;;;12.37;79.69
5455;BME280;2750;49.050;9.250;2023-04-07T06:54:58;98632.97;;;12.20;80.85
5455;BME280;2750;49.050;9.250;2023-04-07T07:00:00;98624.28;;;12.51;80.05
5455;BME280;2750;49.050;9.250;2023-04-07T07:05:03;98618.09;;;12.53;80.14
5455;BME280;2750;49.050;9.250;2023-04-07T07:10:07;98624.72;;;13.03;79.80
5455;BME280;2750;49.050;9.250;2023-04-07T07:15:09;98612.19;;;14.21;76.85
5455;BME280;2750;49.050;9.250;2023-04-07T07:20:12;98623.47;;;15.89;73.58
5455;BME280;2750;49.050;9.250;2023-04-07T07:25:14;98614.47;;;18.75;64.65
5455;BME280;2750;49.050;9.250;2023-04-07T07:30:16;98612.16;;;20.14;61.42
5455;BME280;2750;49.050;9.250;2023-04-07T07:35:19;98605.75;;;22.15;57.60
5455;BME280;2750;49.050;9.250;2023-04-07T07:40:20;98606.38;;;20.97;57.96
5455;BME280;2750;49.050;9.250;2023-04-07T07:45:22;98615.91;;;19.72;59.19
5455;BME280;2750;49.050;9.250;2023-04-07T07:50:25;98621.41;;;19.18;59.87
5455;BME280;2750;49.050;9.250;2023-04-07T07:55:26;98627.00;;;18.40;62.56
5455;BME280;2750;49.050;9.250;2023-04-07T08:00:28;98619.47;;;18.46;62.42
5455;BME280;2750;49.050;9.250;2023-04-07T08:05:31;98626.38;;;18.15;63.62
5455;BME280;2750;49.050;9.250;2023-04-07T08:10:32;98609.63;;;19.12;63.56
5455;BME280;2750;49.050;9.250;2023-04-07T08:15:34;98613.34;;;21.27;58.82
5455;BME280;2750;49.050;9.250;2023-04-07T08:20:37;98619.56;;;23.15;56.09
5455;BME280;2750;49.050;9.250;2023-04-07T08:25:39;98610.25;;;23.55;53.63
5455;BME280;2750;49.050;9.250;2023-04-07T08:30:40;98607.59;;;24.31;51.65
5455;BME280;2750;49.050;9.250;2023-04-07T08:35:43;98603.06;;;26.54;49.33
5455;BME280;2750;49.050;9.250;2023-04-07T08:40:45;98609.16;;;25.30;51.69
5455;BME280;2750;49.050;9.250;2023-04-07T08:45:49;98618.94;;;24.65;51.43
5455;BME280;2750;49.050;9.250;2023-04-07T08:50:53;98622.41;;;23.99;50.62
5455;BME280;2750;49.050;9.250;2023-04-07T08:55:55;98635.31;;;22.46;51.73
5455;BME280;2750;49.050;9.250;2023-04-07T09:00:58;98640.00;;;19.67;56.56
5455;BME280;2750;49.050;9.250;2023-04-07T09:06:01;98647.16;;;19.35;58.82
5455;BME280;2750;49.050;9.250;2023-04-07T09:11:03;98650.31;;;19.08;58.74
5455;BME280;2750;49.050;9.250;2023-04-07T09:16:05;98642.28;;;18.89;60.51
5455;BME280;2750;49.050;9.250;2023-04-07T09:21:08;98649.28;;;19.20;59.77
5455;BME280;2750;49.050;9.250;2023-04-07T09:26:22;98649.59;;;18.42;60.55
5455;BME280;2750;49.050;9.250;2023-04-07T09:31:43;98645.59;;;18.59;59.29
5455;BME280;2750;49.050;9.250;2023-04-07T09:36:46;98650.78;;;18.38;59.93
5455;BME280;2750;49.050;9.250;2023-04-07T09:41:48;98657.38;;;18.22;60.81
5455;BME280;2750;49.050;9.250;2023-04-07T09:46:51;98657.13;;;17.36;62.11
5455;BME280;2750;49.050;9.250;2023-04-07T09:51:57;98656.16;;;16.91;63.28
5455;BME280;2750;49.050;9.250;2023-04-07T09:57:00;98653.03;;;17.89;61.46
5455;BME280;2750;49.050;9.250;2023-04-07T10:02:02;98660.84;;;16.27;65.44
5455;BME280;2750;49.050;9.250;2023-04-07T10:07:06;98665.75;;;17.03;64.21
5455;BME280;2750;49.050;9.250;2023-04-07T10:12:07;98660.31;;;17.63;62.62
5455;BME280;2750;49.050;9.250;2023-04-07T10:17:09;98651.25;;;17.78;61.25
5455;BME280;2750;49.050;9.250;2023-04-07T10:22:13;98656.47;;;16.75;61.60
5455;BME280;2750;49.050;9.250;2023-04-07T10:27:21;98642.53;;;17.89;60.34
5455;BME280;2750;49.050;9.250;2023-04-07T10:32:24;98633.41;;;18.90;58.52
5455;BME280;2750;49.050;9.250;2023-04-07T10:37:27;98635.47;;;19.48;57.35
5455;BME280;2750;49.050;9.250;2023-04-07T10:42:44;98644.16;;;19.19;57.96
5455;BME280;2750;49.050;9.250;2023-04-07T10:48:09;98639.34;;;18.39;61.72
5455;BME280;2750;49.050;9.250;2023-04-07T10:53:13;98640.78;;;18.75;61.64
5455;BME280;2750;49.050;9.250;2023-04-07T10:58:22;98645.75;;;19.82;59.60
5455;BME280;2750;49.050;9.250;2023-04-07T11:03:24;98644.16;;;19.39;60.39
5455;BME280;2750;49.050;9.250;2023-04-07T11:08:33;98633.13;;;19.45;60.46
5455;BME280;2750;49.050;9.250;2023-04-07T11:13:39;98645.19;;;18.21;61.94
5455;BME280;2750;49.050;9.250;2023-04-07T11:18:42;98646.00;;;17.78;62.95
5455;BME280;2750;49.050;9.250;2023-04-07T11:23:46;98644.63;;;16.46;65.22
5455;BME280;2750;49.050;9.250;2023-04-07T11:28:49;98638.69;;;16.67;65.15
5455;BME280;2750;49.050;9.250;2023-04-07T11:33:53;98639.31;;;17.63;63.29
5455;BME280;2750;49.050;9.250;2023-04-07T11:38:57;98632.94;;;17.32;64.37
5455;BME280;2750;49.050;9.250;2023-04-07T11:44:08;98644.19;;;17.79;62.76
5455;BME280;2750;49.050;9.250;2023-04-07T11:49:12;98645.97;;;17.10;64.58
5455;BME280;2750;49.050;9.250;2023-04-07T11:54:15;98657.53;;;16.72;63.96
5455;BME280;2750;49.050;9.250;2023-04-07T11:59:20;98640.78;;;18.21;60.82
5455;BME280;2750;49.050;9.250;2023-04-07T12:04:22;98646.56;;;18.04;60.92
5455;BME280;2750;49.050;9.250;2023-04-07T12:09:27;98646.53;;;18.15;61.22
5455;BME280;2750;49.050;9.250;2023-04-07T12:14:29;98651.94;;;19.20;58.94
5455;BME280;2750;49.050;9.250;2023-04-07T12:19:31;98648.50;;;18.45;58.69
5455;BME280;2750;49.050;9.250;2023-04-07T12:24:35;98649.97;;;19.64;57.18
5455;BME280;2750;49.050;9.250;2023-04-07T12:29:37;98652.38;;;20.16;56.25
5455;BME280;2750;49.050;9.250;2023-04-07T12:34:38;98651.03;;;18.78;57.07
5455;BME280;2750;49.050;9.250;2023-04-07T12:39:41;98654.34;;;18.48;58.83
5455;BME280;2750;49.050;9.250;2023-04-07T12:44:43;98657.50;;;18.31;57.96
5455;BME280;2750;49.050;9.250;2023-04-07T12:49:44;98649.81;;;18.61;58.40
5455;BME280;2750;49.050;9.250;2023-04-07T12:54:47;98653.38;;;19.13;57.93
5455;BME280;2750;49.050;9.250;2023-04-07T12:59:49;98654.34;;;19.12;57.08
5455;BME280;2750;49.050;9.250;2023-04-07T13:04:51;98648.22;;;19.74;55.88
5455;BME280;2750;49.050;9.250;2023-04-07T13:09:54;98647.19;;;20.35;55.22
5455;BME280;2750;49.050;9.250;2023-04-07T13:14:56;98650.72;;;19.75;54.22
5455;BME280;2750;49.050;9.250;2023-04-07T13:19:57;98642.66;;;20.07;54.23
5455;BME280;2750;49.050;9.250;2023-04-07T13:25:00;98636.66;;;20.55;54.05
5455;BME280;2750;49.050;9.250;2023-04-07T13:30:03;98631.44;;;19.75;55.87
5455;BME280;2750;49.050;9.250;2023-04-07T13:35:05;98632.84;;;19.48;56.55
5455;BME280;2750;49.050;9.250;2023-04-07T13:40:09;98623.94;;;19.19;56.45
5455;BME280;2750;49.050;9.250;2023-04-07T13:45:12;98630.00;;;19.61;56.55
5455;BME280;2750;49.050;9.250;2023-04-07T13:50:13;98631.94;;;19.18;57.76
5455;BME280;2750;49.050;9.250;2023-04-07T13:55:16;98629.00;;;18.15;58.26
5455;BME280;2750;49.050;9.250;2023-04-07T14:00:19;98632.69;;;17.35;59.30
5455;BME280;2750;49.050;9.250;2023-04-07T14:05:21;98648.66;;;16.02;66.02
5455;BME280;2750;49.050;9.250;2023-04-07T14:10:24;98659.03;;;15.03;70.15
5455;BME280;2750;49.050;9.250;2023-04-07T14:15:26;98657.44;;;14.34;72.12
5455;BME280;2750;49.050;9.250;2023-04-07T14:20:28;98658.59;;;14.16;70.67
5455;BME280;2750;49.050;9.250;2023-04-07T14:25:31;98658.84;;;14.40;71.06
5455;BME280;2750;49.050;9.250;2023-04-07T14:30:34;98662.81;;;14.59;71.28
5455;BME280;2750;49.050;9.250;2023-04-07T14:35:37;98663.75;;;14.17;73.24
5455;BME280;2750;49.050;9.250;2023-04-07T14:40:40;98667.25;;;14.57;71.60
5455;BME280;2750;49.050;9.250;2023-04-07T14:45:42;98662.13;;;14.29;71.54
5455;BME280;2750;49.050;9.250;2023-04-07T14:50:44;98667.31;;;14.43;69.99
5455;BME280;2750;49.050;9.250;2023-04-07T14:55:47;98672.34;;;14.46;70.61
5455;BME280;2750;49.050;9.250;2023-04-07T15:00:49;98668.09;;;14.84;68.87
5455;BME280;2750;49.050;9.250;2023-04-07T15:05:50;98673.06;;;15.27;67.44
5455;BME280;2750;49.050;9.250;2023-04-07T15:10:53;98669.31;;;15.94;66.31
5455;BME280;2750;49.050;9.250;2023-04-07T15:15:55;98676.66;;;15.64;67.23
5455;BME280;2750;49.050;9.250;2023-04-07T15:20:56;98676.81;;;14.98;71.14
5455;BME280;2750;49.050;9.250;2023-04-07T15:25:59;98682.91;;;15.23;70.33
5455;BME280;2750;49.050;9.250;2023-04-07T15:31:01;98676.25;;;16.19;67.66
5455;BME280;2750;49.050;9.250;2023-04-07T15:36:03;98675.78;;;16.74;62.78
5455;BME280;2750;49.050;9.250;2023-04-07T15:41:06;98677.75;;;16.59;62.68
5455;BME280;2750;49.050;9.250;2023-04-07T15:46:08;98681.16;;;16.36;64.80
5455;BME280;2750;49.050;9.250;2023-04-07T15:51:09;98685.81;;;16.20;65.88
5455;BME280;2750;49.050;9.250;2023-04-07T15:56:12;98683.09;;;16.82;65.13
5455;BME280;2750;49.050;9.250;2023-04-07T16:01:14;98686.50;;;17.06;64.54
5455;BME280;2750;49.050;9.250;2023-04-07T16:06:15;98685.25;;;17.34;63.67
5455;BME280;2750;49.050;9.250;2023-04-07T16:11:18;98694.88;;;16.63;65.22
5455;BME280;2750;49.050;9.250;2023-04-07T16:16:20;98696.63;;;16.39;65.95
5455;BME280;2750;49.050;9.250;2023-04-07T16:21:22;98705.06;;;16.55;65.87
5455;BME280;2750;49.050;9.250;2023-04-07T16:26:25;98697.88;;;16.46;65.98
5455;BME280;2750;49.050;9.250;2023-04-07T16:31:26;98705.88;;;16.56;66.40
5455;BME280;2750;49.050;9.250;2023-04-07T16:36:28;98710.53;;;18.14;62.15
5455;BME280;2750;49.050;9.250;2023-04-07T16:41:31;98709.13;;;19.07;59.56
5455;BME280;2750;49.050;9.250;2023-04-07T16:46:32;98705.25;;;19.22;58.04
5455;BME280;2750;49.050;9.250;2023-04-07T16:51:34;98704.28;;;19.23;58.11
5455;BME280;2750;49.050;9.250;2023-04-07T16:56:37;98720.66;;;18.41;60.60
5455;BME280;2750;49.050;9.250;2023-04-07T17:01:39;98734.59;;;17.63;62.16
5455;BME280;2750;49.050;9.250;2023-04-07T17:06:41;98737.47;;;15.15;68.50
5455;BME280;2750;49.050;9.250;2023-04-07T17:11:44;98749.09;;;14.15;74.14
5455;BME280;2750;49.050;9.250;2023-04-07T17:16:46;98765.00;;;13.54;74.80
5455;BME280;2750;49.050;9.250;2023-04-07T17:21:48;98768.75;;;12.89;77.95
5455;BME280;2750;49.050;9.250;2023-04-07T17:26:51;98780.06;;;13.04;78.04
5455;BME280;2750;49.050;9.250;2023-04-07T17:31:52;98791.28;;;11.77;81.99
5455;BME280;2750;49.050;9.250;2023-04-07T17:36:54;98792.78;;;11.47;87.37
5455;BME280;2750;49.050;9.250;2023-04-07T17:41:57;98809.75;;;11.54;86.93
5455;BME280;2750;49.050;9.250;2023-04-07T17:46:59;98823.13;;;11.46;87.96
5455;BME280;2750;49.050;9.250;2023-04-07T17:52:01;98820.31;;;10.98;90.33
5455;BME280;2750;49.050;9.250;2023-04-07T17:57:04;98836.34;;;10.70;92.78
5455;BME280;2750;49.050;9.250;2023-04-07T18:02:07;98849.66;;;10.63;92.49
5455;BME280;2750;49.050;9.250;2023-04-07T18:07:09;98841.38;;;11.11;93.62
5455;BME280;2750;49.050;9.250;2023-04-07T18:12:13;98840.31;;;11.32;93.89
5455;BME280;2750;49.050;9.250;2023-04-07T18:17:15;98851.50;;;11.34;93.07
5455;BME280;2750;49.050;9.250;2023-04-07T18:22:16;98852.84;;;11.24;94.23
5455;BME280;2750;49.050;9.250;2023-04-07T18:27:19;98862.72;;;10.98;96.32
5455;BME280;2750;49.050;9.250;2023-04-07T18:32:24;98862.00;;;11.31;95.96
5455;BME280;2750;49.050;9.250;2023-04-07T18:37:25;98864.31;;;11.37;94.18
5455;BME280;2750;49.050;9.250;2023-04-07T18:42:30;98874.47;;;11.77;92.00
5455;BME280;2750;49.050;9.250;2023-04-07T18:47:31;98885.94;;;11.73;92.13
5455;BME280;2750;49.050;9.250;2023-04-07T18:52:33;98903.22;;;11.91;91.90
5455;BME280;2750;49.050;9.250;2023-04-07T18:57:36;98902.91;;;11.97;89.96
5455;BME280;2750;49.050;9.250;2023-04-07T19:02:38;98914.78;;;12.03;89.44
5455;BME280;2750;49.050;9.250;2023-04-07T19:07:43;98923.56;;;12.01;89.70
5455;BME280;2750;49.050;9.250;2023-04-07T19:12:46;98926.31;;;12.15;90.64
5455;BME280;2750;49.050;9.250;2023-04-07T19:17:48;98930.31;;;11.87;91.49
5455;BME280;2750;49.050;9.250;2023-04-07T19:22:49;98935.97;;;11.95;91.23
5455;BME280;2750;49.050;9.250;2023-04-07T19:27:52;98933.59;;;11.91;90.75
5455;BME280;2750;49.050;9.250;2023-04-07T19:32:54;98942.25;;;11.91;90.97
5455;BME280;2750;49.050;9.250;2023-04-07T19:37:57;98953.25;;;12.14;89.91
5455;BME280;2750;49.050;9.250;2023-04-07T19:43:00;98939.63;;;11.91;90.99
5455;BME280;2750;49.050;9.250;2023-04-07T19:48:01;98951.03;;;11.70;91.82
5455;BME280;2750;49.050;9.250;2023-04-07T19:53:03;98948.13;;;11.59;92.82
5455;BME280;2750;49.050;9.250;2023-04-07T19:58:05;98954.69;;;11.66;92.53
5455;BME280;2750;49.050;9.250;2023-04-07T20:03:07;98955.09;;;11.94;92.30
5455;BME280;2750;49.050;9.250;2023-04-07T20:08:08;98957.38;;;11.83;92.35
5455;BME280;2750;49.050;9.250;2023-04-07T20:13:12;98958.53;;;11.95;91.80
5455;BME280;2750;49.050;9.250;2023-04-07T20:18:14;98961.44;;;11.70;92.81
5455;BME280;2750;49.050;9.250;2023-04-07T20:23:17;98970.66;;;11.77;92.73
5455;BME280;2750;49.050;9.250;2023-04-07T20:28:22;98969.44;;;11.66;93.58
5455;BME280;2750;49.050;9.250;2023-04-07T20:33:24;98966.94;;;11.64;93.50
5455;BME280;2750;49.050;9.250;2023-04-07T20:38:26;98965.69;;;11.73;93.14
5455;BME280;2750;49.050;9.250;2023-04-07T20:43:29;98966.50;;;11.73;92.95
5455;BME280;2750;49.050;9.250;2023-04-07T20:48:31;98973.72;;;11.67;93.12
5455;BME280;2750;49.050;9.250;2023-04-07T20:53:34;98968.59;;;11.65;93.06
5455;BME280;2750;49.050;9.250;2023-04-07T20:58:37;98967.31;;;11.57;93.30
5455;BME280;2750;49.050;9.250;2023-04-07T21:03:38;98971.75;;;11.36;94.80
5455;BME280;2750;49.050;9.250;2023-04-07T21:08:40;98985.16;;;11.45;94.51
5455;BME280;2750;49.050;9.250;2023-04-07T21:13:43;98980.03;;;11.44;94.76
5455;BME280;2750;49.050;9.250;2023-04-07T21:18:44;98983.66;;;11.59;95.00
5455;BME280;2750;49.050;9.250;2023-04-07T21:23:46;98986.19;;;11.60;94.44
5455;BME280;2750;49.050;9.250;2023-04-07T21:28:49;98988.81;;;11.41;94.84
5455;BME280;2750;49.050;9.250;2023-04-07T21:33:51;98993.16;;;11.41;95.19
5455;BME280;2750;49.050;9.250;2023-04-07T21:38:52;98993.84;;;11.44;94.33
5455;BME280;2750;49.050;9.250;2023-04-07T21:43:55;98985.38;;;11.22;95.84
5455;BME280;2750;49.050;9.250;2023-04-07T21:48:57;98996.44;;;11.63;94.43
5455;BME280;2750;49.050;9.250;2023-04-07T21:53:58;98994.09;;;11.94;93.02
5455;BME280;2750;49.050;9.250;2023-04-07T21:59:01;98998.22;;;11.98;91.12
5455;BME280;2750;49.050;9.250;2023-04-07T22:04:03;98995.78;;;11.77;90.79
5455;BME280;2750;49.050;9.250;2023-04-07T22:09:05;99000.34;;;11.90;90.48
5455;BME280;2750;49.050;9.250;2023-04-07T22:14:08;99003.22;;;11.66;90.87
5455;BME280;2750;49.050;9.250;2023-04-07T22:19:10;98999.56;;;11.70;90.96
5455;BME280;2750;49.050;9.250;2023-04-07T22:24:11;98997.78;;;11.53;90.88
5455;BME280;2750;49.050;9.250;2023-04-07T22:29:14;99007.47;;;11.31;91.98
5455;BME280;2750;49.050;9.250;2023-04-07T22:34:16;99009.72;;;11.38;91.72
5455;BME280;2750;49.050;9.250;2023-04-07T22:39:18;99006.56;;;11.13;92.60
5455;BME280;2750;49.050;9.250;2023-04-07T22:44:21;99010.63;;;11.56;91.16
5455;BME280;2750;49.050;9.250;2023-04-07T22:49:22;99005.59;;;11.53;90.94
5455;BME280;2750;49.050;9.250;2023-04-07T22:54:24;99009.59;;;11.23;91.93
5455;BME280;2750;49.050;9.250;2023-04-07T22:59:27;99017.66;;;11.54;90.82
5455;BME280;2750;49.050;9.250;2023-04-07T23:04:28;99004.03;;;11.49;90.85
5455;BME280;2750;49.050;9.250;2023-04-07T23:09:30;99028.69;;;11.59;90.72
5455;BME280;2750;49.050;9.250;2023-04-07T23:14:34;99032.97;;;11.60;90.28
5455;BME280;2750;49.050;9.250;2023-04-07T23:19:35;99030.53;;;11.76;90.16
5455;BME280;2750;49.050;9.250;2023-04-07T23:24:37;99040.44;;;11.49;90.70
5455;BME280;2750;49.050;9.250;2023-04-07T23:29:40;99041.69;;;11.78;89.94
5455;BME280;2750;49.050;9.250;2023-04-07T23:34:41;99049.13;;;11.85;89.51
5455;BME280;2750;49.050;9.250;2023-04-07T23:39:43;99042.84;;;11.72;89.82
5455;BME280;2750;49.050;9.250;2023-04-07T23:44:46;99047.56;;;11.81;88.97
5455;BME280;2750;49.050;9.250;2023-04-07T23:49:47;99053.47;;;11.66;89.69
5455;BME280;2750;49.050;9.250;2023-04-07T23:54:49;99043.84;;;11.31;90.36
5455;BME280;2750;49.050;9.250;2023-04-07T23:59:52;99057.31;;;11.39;91.18
